CheckWX is a tool to help pilots better visualize weather data.  It is not intended as a substitute for an official pre-flight weather briefing.

00:38:42 UTC

KRDU METAR
Raleigh-Durham International Airport
Morrisville, North Carolina, USA
Current

48 mins ago

KRDU 162351Z 13005KT 10SM FEW250 27/18 A2997 RMK AO2 SLP144 T02670183 10322 20267 51003
Observed
Sep-16 @ 23:51 UTC
Wind
  • 130° at 5 KTS
Visibility
10 SM
Flight Rules
VFR
Cloud Levels
  • Few at 25,000' AGL
Temperature
27°C / 81°F
Dewpoint
18°C / 64°F
Heat Index
28°C / 83°F
Humidity
58%
Altimeter
29.97" Hg
Pressure
1014.92 hPa
Previous

2 hours ago

KRDU 162251Z 14006KT 10SM FEW250 29/18 A2997 RMK AO2 SLP143 T02940183
Observed
Sep-16 @ 22:51 UTC
Wind
  • 140° at 6 KTS
Visibility
10 SM
Flight Rules
VFR
Cloud Levels
  • Few at 25,000' AGL
Temperature
29°C / 84°F
Dewpoint
18°C / 64°F
Heat Index
29°C / 85°F
Humidity
51%
Altimeter
29.97" Hg
Pressure
1014.92 hPa
Previous

3 hours ago

KRDU 162151Z 09004KT 10SM FEW060 FEW250 31/15 A2997 RMK AO2 SLP142 T03110150
Observed
Sep-16 @ 21:51 UTC
Wind
  • 090° at 4 KTS
Visibility
10 SM
Flight Rules
VFR
Cloud Levels
  • Few at 6,000' AGL
  • Few at 25,000' AGL
Temperature
31°C / 88°F
Dewpoint
15°C / 59°F
Humidity
38%
Altimeter
29.97" Hg
Pressure
1014.92 hPa